createdAt,value
2024-05-09T00:02:41.484Z,98334.47
2024-05-09T00:05:44.700Z,98332.88
2024-05-09T00:08:47.492Z,98319.63
2024-05-09T00:11:50.202Z,98333.31
2024-05-09T00:14:52.874Z,98338.22
2024-05-09T00:17:55.546Z,98333.75
2024-05-09T00:20:58.253Z,98331.63
2024-05-09T00:24:00.933Z,98328.03
2024-05-09T00:27:03.530Z,98322.28
2024-05-09T00:30:07.263Z,98323.94
2024-05-09T00:33:11.162Z,98320.09
2024-05-09T00:36:14.286Z,98323.34
2024-05-09T00:39:16.839Z,98323.16
2024-05-09T00:42:19.468Z,98317.44
2024-05-09T00:45:22.074Z,98314.38
2024-05-09T00:48:27.297Z,98319.69
2024-05-09T00:51:30.264Z,98313.63
2024-05-09T00:54:33.622Z,98313.56
2024-05-09T00:57:36.254Z,98316.91
2024-05-09T01:00:40.941Z,98303.19
2024-05-09T01:03:45.930Z,98304.47
2024-05-09T01:06:49.418Z,98294.88
2024-05-09T01:09:51.917Z,98304.47
2024-05-09T01:12:54.548Z,98301.41
2024-05-09T01:15:58.546Z,98295.50
2024-05-09T01:19:02.075Z,98291.03
2024-05-09T01:22:04.959Z,98294.94
2024-05-09T01:25:07.773Z,98295.53
2024-05-09T01:28:10.540Z,98295.97
2024-05-09T01:31:16.318Z,98303.56
2024-05-09T01:34:19.381Z,98270.13
2024-05-09T01:37:21.996Z,98298.03
2024-05-09T01:40:33.528Z,98295.75
2024-05-09T01:43:40.484Z,98302.81
2024-05-09T01:46:43.079Z,98297.44
2024-05-09T01:49:45.717Z,98298.00
2024-05-09T01:52:48.404Z,98297.66
2024-05-09T01:55:51.016Z,98292.03
2024-05-09T01:58:53.655Z,98295.22
2024-05-09T02:01:57.895Z,98290.41
2024-05-09T02:05:00.774Z,98278.97
2024-05-09T02:08:03.513Z,98298.66
2024-05-09T02:11:06.277Z,98301.47
2024-05-09T02:14:08.857Z,98307.56
2024-05-09T02:17:11.371Z,98304.97
2024-05-09T02:20:22.426Z,98310.09
2024-05-09T02:23:30.021Z,98306.81
2024-05-09T02:26:32.660Z,98312.34
2024-05-09T02:29:35.538Z,98306.78
2024-05-09T02:32:38.343Z,98285.78
2024-05-09T02:35:41.862Z,98279.38
2024-05-09T02:38:44.610Z,98291.91
2024-05-09T02:41:47.163Z,98302.75
2024-05-09T02:44:49.788Z,98302.78
2024-05-09T02:47:52.527Z,98305.44
2024-05-09T02:50:55.297Z,98314.22
2024-05-09T02:53:57.923Z,98315.81
2024-05-09T02:57:00.491Z,98311.56
2024-05-09T03:00:03.655Z,98319.56
2024-05-09T03:03:10.599Z,98314.69
2024-05-09T03:06:15.203Z,98330.34
2024-05-09T03:09:17.788Z,98327.97
2024-05-09T03:12:20.343Z,98319.00
2024-05-09T03:15:23.072Z,98321.66
2024-05-09T03:18:25.688Z,98333.44
2024-05-09T03:21:28.404Z,98336.13
2024-05-09T03:24:30.906Z,98339.59
2024-05-09T03:27:33.493Z,98340.66
2024-05-09T03:30:41.291Z,98340.00
2024-05-09T03:33:46.227Z,98348.16
2024-05-09T03:36:49.030Z,98346.72
2024-05-09T03:39:51.555Z,98345.28
2024-05-09T03:42:54.260Z,98344.66
2024-05-09T03:45:57.431Z,98343.25
2024-05-09T03:49:00.015Z,98345.25
2024-05-09T03:52:05.629Z,98337.53
2024-05-09T03:55:08.345Z,98348.97
2024-05-09T03:58:13.233Z,98349.41
2024-05-09T04:01:15.822Z,98349.78
2024-05-09T04:04:18.419Z,98340.19
2024-05-09T04:07:21.071Z,98338.47
2024-05-09T04:10:30.519Z,98340.34
2024-05-09T04:13:35.819Z,98346.47
2024-05-09T04:16:38.323Z,98344.78
2024-05-09T04:19:40.979Z,98346.41
2024-05-09T04:22:43.732Z,98348.41
2024-05-09T04:25:47.206Z,98344.03
2024-05-09T04:28:49.852Z,98343.81
2024-05-09T04:31:52.516Z,98347.69
2024-05-09T04:34:55.207Z,98349.59
2024-05-09T04:37:57.849Z,98352.84
2024-05-09T04:41:00.527Z,98354.91
2024-05-09T04:44:03.178Z,98350.53
2024-05-09T04:47:05.692Z,98355.84
2024-05-09T04:50:11.589Z,98355.88
2024-05-09T04:53:17.635Z,98359.56
2024-05-09T04:56:20.393Z,98356.97
2024-05-09T04:59:23.050Z,98356.38
2024-05-09T05:02:25.620Z,98348.31
2024-05-09T05:05:28.339Z,98367.00
2024-05-09T05:08:31.153Z,98373.38
2024-05-09T05:11:34.067Z,98382.72
2024-05-09T05:14:36.655Z,98371.72
2024-05-09T05:17:40.325Z,98367.00
2024-05-09T05:20:43.693Z,98365.44
2024-05-09T05:23:46.319Z,98370.78
2024-05-09T05:26:48.888Z,98383.91
2024-05-09T05:29:51.440Z,98383.72
2024-05-09T05:32:54.377Z,98377.16
2024-05-09T05:35:57.667Z,98389.63
2024-05-09T05:39:00.247Z,98389.91
2024-05-09T05:42:02.802Z,98393.72
2024-05-09T05:45:09.875Z,98383.50
2024-05-09T05:48:14.154Z,98397.09
2024-05-09T05:51:17.030Z,98398.84
2024-05-09T05:54:19.717Z,98391.03
2024-05-09T05:57:22.212Z,98401.63
2024-05-09T06:00:30.166Z,98396.06
2024-05-09T06:03:40.153Z,98400.81
2024-05-09T06:06:42.900Z,98404.09
2024-05-09T06:09:47.634Z,98416.19
2024-05-09T06:12:51.590Z,98423.13
2024-05-09T06:15:54.036Z,98418.88
2024-05-09T06:18:56.712Z,98424.22
2024-05-09T06:21:59.397Z,98414.00
2024-05-09T06:25:01.992Z,98428.44
2024-05-09T06:28:05.170Z,98429.72
2024-05-09T06:31:07.977Z,98435.50
2024-05-09T06:34:10.828Z,98413.47
2024-05-09T06:37:13.594Z,98416.25
2024-05-09T06:40:21.384Z,98437.84
2024-05-09T06:43:28.002Z,98444.13
2024-05-09T06:46:30.618Z,98437.03
2024-05-09T06:49:33.326Z,98435.78
2024-05-09T06:52:35.953Z,98436.47
2024-05-09T06:55:38.464Z,98434.47
2024-05-09T06:58:41.110Z,98431.13
2024-05-09T07:01:43.839Z,98434.22
2024-05-09T07:04:46.703Z,98434.34
2024-05-09T07:07:49.430Z,98441.91
2024-05-09T07:10:52.196Z,98440.84
2024-05-09T07:13:54.898Z,98432.41
2024-05-09T07:16:57.496Z,98447.00
2024-05-09T07:20:00.658Z,98441.38
2024-05-09T07:23:03.826Z,98439.78
2024-05-09T07:26:06.445Z,98448.78
2024-05-09T07:29:09.127Z,98440.16
2024-05-09T07:32:11.946Z,98449.69
2024-05-09T07:35:14.676Z,98440.78
2024-05-09T07:38:17.450Z,98407.47
2024-05-09T07:41:20.045Z,98441.19
2024-05-09T07:44:22.809Z,98445.88
2024-05-09T07:48:56.930Z,98439.25
2024-05-09T07:53:58.288Z,98447.50
2024-05-09T07:57:03.166Z,98438.63
2024-05-09T08:00:06.770Z,98435.47
2024-05-09T08:03:11.005Z,98439.56
2024-05-09T08:06:13.652Z,98437.41
2024-05-09T08:09:20.916Z,98441.28
2024-05-09T08:12:24.012Z,98440.69
2024-05-09T08:15:26.679Z,98404.41
2024-05-09T08:18:29.543Z,98433.63
2024-05-09T08:21:32.573Z,98435.50
2024-05-09T08:24:36.182Z,98432.81
2024-05-09T08:27:38.790Z,98439.25
2024-05-09T08:30:41.812Z,98427.31
2024-05-09T08:33:48.646Z,98434.66
2024-05-09T08:36:51.369Z,98434.38
2024-05-09T08:39:53.974Z,98443.50
2024-05-09T08:42:58.077Z,98429.28
2024-05-09T08:46:02.621Z,98428.25
2024-05-09T08:49:05.523Z,98430.28
2024-05-09T08:52:08.836Z,98425.78
2024-05-09T08:55:11.501Z,98431.28
2024-05-09T08:58:20.546Z,98401.81
2024-05-09T09:01:24.293Z,98418.00
2024-05-09T09:04:28.558Z,98426.72
2024-05-09T09:07:33.855Z,98420.13
2024-05-09T09:10:40.104Z,98426.97
2024-05-09T09:13:42.733Z,98437.34
2024-05-09T09:16:46.351Z,98440.00
2024-05-09T09:19:48.899Z,98430.13
2024-05-09T09:22:52.976Z,98428.78
2024-05-09T09:25:59.319Z,98427.06
2024-05-09T09:29:02.589Z,98422.78
2024-05-09T09:32:07.312Z,98421.44
2024-05-09T09:35:09.879Z,98415.38
2024-05-09T09:38:18.673Z,98411.34
2024-05-09T09:41:26.158Z,98412.91
2024-05-09T09:44:29.624Z,98418.63
2024-05-09T09:47:33.626Z,98408.47
2024-05-09T09:50:36.673Z,98392.28
2024-05-09T09:53:39.636Z,98399.63
2024-05-09T09:56:43.639Z,98413.97
2024-05-09T09:59:49.410Z,98409.53
2024-05-09T10:02:51.995Z,98399.06
2024-05-09T10:05:55.469Z,98401.31
2024-05-09T10:08:58.438Z,98398.09
2024-05-09T10:12:14.509Z,98394.88
2024-05-09T10:15:20.512Z,98392.03
2024-05-09T10:18:30.273Z,98392.19
2024-05-09T10:21:33.984Z,98397.34
2024-05-09T10:25:09.048Z,98398.25
2024-05-09T10:28:12.855Z,98388.31
2024-05-09T10:31:16.675Z,98387.78
2024-05-09T10:34:21.724Z,98389.13
2024-05-09T10:37:25.822Z,98397.47
2024-05-09T10:40:31.699Z,98389.38
2024-05-09T10:43:38.982Z,98378.81
2024-05-09T10:46:51.099Z,98378.81
2024-05-09T10:49:56.044Z,98375.34
2024-05-09T10:52:58.713Z,98382.13
2024-05-09T10:56:02.429Z,98375.13
2024-05-09T10:59:05.925Z,98373.25
2024-05-09T11:02:08.772Z,98367.84
2024-05-09T11:05:12.201Z,98366.78
2024-05-09T11:08:16.147Z,98379.16
2024-05-09T11:11:19.185Z,98364.59
2024-05-09T11:14:21.772Z,98373.78
2024-05-09T11:17:24.554Z,98372.47
2024-05-09T11:20:37.432Z,98380.53
2024-05-09T11:23:40.374Z,98374.34
2024-05-09T11:26:43.624Z,98330.16
2024-05-09T11:29:47.766Z,98356.81
2024-05-09T11:32:50.613Z,98365.16
2024-05-09T11:35:53.276Z,98354.94
2024-05-09T11:38:55.800Z,98346.59
2024-05-09T11:41:58.443Z,98363.84
2024-05-09T11:45:01.141Z,98364.63
2024-05-09T11:48:04.520Z,98355.47
2024-05-09T11:51:07.280Z,98351.72
2024-05-09T11:54:09.845Z,98340.94
2024-05-09T11:57:12.436Z,98333.31
2024-05-09T12:00:20.707Z,98330.91
2024-05-09T12:03:31.635Z,98326.38
2024-05-09T12:06:34.365Z,98339.22
2024-05-09T12:09:37.056Z,98321.41
2024-05-09T12:12:40.442Z,98337.06
2024-05-09T12:15:42.990Z,98335.69
2024-05-09T12:18:45.730Z,98317.16
2024-05-09T12:21:48.390Z,98317.97
2024-05-09T12:24:50.962Z,98322.28
2024-05-09T12:27:53.968Z,98317.94
2024-05-09T12:30:56.584Z,98311.81
2024-05-09T12:34:00.780Z,98327.13
2024-05-09T12:37:03.536Z,98306.06
2024-05-09T12:40:12.749Z,98306.06
2024-05-09T12:43:21.162Z,98315.22
2024-05-09T12:46:24.169Z,98306.31
2024-05-09T12:49:27.042Z,98317.59
2024-05-09T12:52:29.675Z,98290.69
2024-05-09T12:55:43.922Z,98296.84
2024-05-09T12:58:52.073Z,98293.31
2024-05-09T13:01:56.540Z,98298.09
2024-05-09T13:04:59.988Z,98291.03
2024-05-09T13:08:03.922Z,98281.06
2024-05-09T13:11:06.728Z,98277.94
2024-05-09T13:14:09.317Z,98288.19
2024-05-09T13:17:12.028Z,98281.16
2024-05-09T13:20:22.921Z,98291.09
2024-05-09T13:23:31.969Z,98277.34
2024-05-09T13:26:34.742Z,98281.66
2024-05-09T13:29:39.082Z,98280.28
2024-05-09T13:32:43.104Z,98276.28
2024-05-09T13:35:49.607Z,98276.25
2024-05-09T13:38:53.639Z,98272.06
2024-05-09T13:41:56.184Z,98273.50
2024-05-09T13:44:58.802Z,98264.75
2024-05-09T13:48:07.236Z,98271.47
2024-05-09T13:51:09.958Z,98263.19
2024-05-09T13:54:12.513Z,98261.13
2024-05-09T13:57:15.026Z,98256.25
2024-05-09T14:00:30.948Z,98254.63
2024-05-09T14:03:40.466Z,98253.53
2024-05-09T14:06:43.683Z,98247.28
2024-05-09T14:09:47.490Z,98249.13
2024-05-09T14:12:50.203Z,98246.00
2024-05-09T14:15:53.050Z,98233.44
2024-05-09T14:18:55.760Z,98242.94
2024-05-09T14:21:58.373Z,98238.09
2024-05-09T14:25:00.995Z,98249.19
2024-05-09T14:28:04.376Z,98233.88
2024-05-09T14:31:06.965Z,98227.41
2024-05-09T14:34:09.923Z,98226.09
2024-05-09T14:37:12.795Z,98232.84
2024-05-09T14:40:30.488Z,98236.22
2024-05-09T14:43:38.504Z,98236.22
2024-05-09T14:46:41.078Z,98229.69
2024-05-09T14:49:44.880Z,98219.53
2024-05-09T14:52:47.590Z,98220.09
2024-05-09T14:55:50.372Z,98222.16
2024-05-09T14:58:53.317Z,98229.22
2024-05-09T15:01:56.024Z,98229.28
2024-05-09T15:04:59.134Z,98221.69
2024-05-09T15:08:01.887Z,98217.16
2024-05-09T15:11:04.700Z,98217.63
2024-05-09T15:14:07.358Z,98218.97
2024-05-09T15:17:09.882Z,98211.63
2024-05-09T15:20:17.058Z,98207.69
2024-05-09T15:23:23.046Z,98206.13
2024-05-09T15:26:25.872Z,98209.66
2024-05-09T15:29:29.979Z,98204.56
2024-05-09T15:32:32.690Z,98201.88
2024-05-09T15:35:36.276Z,98202.47
2024-05-09T15:38:39.760Z,98193.50
2024-05-09T15:41:42.456Z,98186.81
2024-05-09T15:44:53.322Z,98181.22
2024-05-09T15:47:57.399Z,98196.47
2024-05-09T15:51:00.248Z,98193.28
2024-05-09T15:54:02.811Z,98192.47
2024-05-09T15:57:05.997Z,98196.03
2024-05-09T16:00:18.072Z,98190.13
2024-05-09T16:03:27.191Z,98186.38
2024-05-09T16:06:29.886Z,98172.66
2024-05-09T16:09:32.554Z,98179.94
2024-05-09T16:12:35.062Z,98169.81
2024-05-09T16:15:37.821Z,98188.03
2024-05-09T16:18:40.743Z,98185.91
2024-05-09T16:21:43.446Z,98178.09
2024-05-09T16:24:46.081Z,98186.78
2024-05-09T16:27:48.809Z,98181.06
2024-05-09T16:30:52.021Z,98182.97
2024-05-09T16:33:54.793Z,98185.38
2024-05-09T16:36:57.572Z,98186.75
2024-05-09T16:40:00.318Z,98181.66
2024-05-09T16:43:06.511Z,98183.81
2024-05-09T16:46:09.511Z,98187.41
2024-05-09T16:49:12.230Z,98179.31
2024-05-09T16:52:16.067Z,98177.19
2024-05-09T16:55:19.452Z,98161.38
2024-05-09T16:58:22.119Z,98183.19
2024-05-09T17:01:24.744Z,98176.75
2024-05-09T17:04:27.573Z,98174.28
2024-05-09T17:07:30.534Z,98178.84
2024-05-09T17:10:34.975Z,98154.59
2024-05-09T17:13:39.809Z,98175.56
2024-05-09T17:16:42.424Z,98179.72
2024-05-09T17:19:49.337Z,98158.88
2024-05-09T17:22:53.768Z,98173.66
2024-05-09T17:25:59.757Z,98182.28
2024-05-09T17:29:02.542Z,98180.13
2024-05-09T17:32:06.468Z,98175.44
2024-05-09T17:35:09.112Z,98185.75
2024-05-09T17:38:11.929Z,98177.78
2024-05-09T17:41:14.625Z,98186.53
2024-05-09T17:44:17.179Z,98164.25
2024-05-09T17:47:20.782Z,98200.47
2024-05-09T17:50:30.336Z,98198.28
2024-05-09T17:53:37.096Z,98196.44
2024-05-09T17:56:39.592Z,98199.97
2024-05-09T17:59:42.222Z,98198.66
2024-05-09T18:02:44.932Z,98195.63
2024-05-09T18:05:47.772Z,98202.13
2024-05-09T18:08:50.427Z,98206.06
2024-05-09T18:11:53.122Z,98200.00
2024-05-09T18:14:55.723Z,98204.38
2024-05-09T18:17:58.507Z,98195.63
2024-05-09T18:21:01.325Z,98203.41
2024-05-09T18:24:04.296Z,98205.81
2024-05-09T18:27:06.881Z,98198.00
2024-05-09T18:30:23.809Z,98208.31
2024-05-09T18:33:30.977Z,98212.56
2024-05-09T18:36:34.570Z,98197.81
2024-05-09T18:39:37.520Z,98216.66
2024-05-09T18:42:40.918Z,98225.34
2024-05-09T18:45:43.767Z,98226.97
2024-05-09T18:48:46.952Z,98225.72
2024-05-09T18:51:50.668Z,98225.72
2024-05-09T18:54:53.978Z,98234.53
2024-05-09T18:57:56.926Z,98231.50
2024-05-09T19:01:01.776Z,98235.31
2024-05-09T19:04:05.590Z,98241.44
2024-05-09T19:07:12.613Z,98244.88
2024-05-09T19:10:22.501Z,98246.84
2024-05-09T19:13:29.735Z,98254.91
2024-05-09T19:16:33.652Z,98247.16
2024-05-09T19:19:37.354Z,98251.69
2024-05-09T19:22:40.161Z,98260.59
2024-05-09T19:25:43.351Z,98268.63
2024-05-09T19:28:46.823Z,98268.44
2024-05-09T19:31:50.810Z,98248.63
2024-05-09T19:34:54.476Z,98276.56
2024-05-09T19:37:57.775Z,98270.72
2024-05-09T19:41:01.234Z,98279.84
2024-05-09T19:44:07.201Z,98274.94
2024-05-09T19:47:09.955Z,98278.94
2024-05-09T19:50:19.543Z,98282.34
2024-05-09T19:53:26.921Z,98287.75
2024-05-09T19:56:31.101Z,98284.34
2024-05-09T19:59:34.360Z,98284.56
2024-05-09T20:02:38.742Z,98283.31
2024-05-09T20:05:45.131Z,98292.09
2024-05-09T20:08:48.959Z,98288.19
2024-05-09T20:11:52.452Z,98283.38
2024-05-09T20:14:58.351Z,98280.97
2024-05-09T20:18:02.256Z,98285.13
2024-05-09T20:21:07.408Z,98293.78
2024-05-09T20:24:11.567Z,98296.88
2024-05-09T20:27:15.401Z,98295.75
2024-05-09T20:30:25.473Z,98291.69
2024-05-09T20:33:35.938Z,98291.91
2024-05-09T20:36:40.888Z,98294.13
2024-05-09T20:39:44.751Z,98291.13
2024-05-09T20:42:49.314Z,98298.28
2024-05-09T20:45:52.140Z,98297.78
2024-05-09T20:48:56.768Z,98290.16
2024-05-09T20:51:59.508Z,98285.13
2024-05-09T20:55:02.255Z,98295.75
2024-05-09T20:58:05.682Z,98291.75
2024-05-09T21:01:08.463Z,98296.50
2024-05-09T21:04:11.386Z,98295.47
2024-05-09T21:07:14.486Z,98296.66
2024-05-09T21:10:22.383Z,98300.38
2024-05-09T21:13:26.010Z,98297.66
2024-05-09T21:16:28.959Z,98285.97
2024-05-09T21:19:31.517Z,98301.22
2024-05-09T21:22:34.148Z,98298.41
2024-05-09T21:25:37.032Z,98309.22
2024-05-09T21:28:39.697Z,98306.63
2024-05-09T21:31:42.224Z,98309.91
2024-05-09T21:34:44.955Z,98306.69
2024-05-09T21:37:47.632Z,98312.81
2024-05-09T21:40:50.340Z,98307.91
2024-05-09T21:43:52.884Z,98303.69
2024-05-09T21:46:55.459Z,98314.84
2024-05-09T21:49:57.981Z,98286.38
2024-05-09T21:53:00.482Z,98313.84
2024-05-09T21:56:03.043Z,98312.06
2024-05-09T21:59:05.599Z,98308.53
2024-05-09T22:02:09.445Z,98315.53
2024-05-09T22:05:14.362Z,98313.50
2024-05-09T22:08:17.233Z,98321.88
2024-05-09T22:11:19.922Z,98319.44
2024-05-09T22:14:22.742Z,98325.34
2024-05-09T22:17:25.494Z,98333.34
2024-05-09T22:20:34.518Z,98328.03
2024-05-09T22:23:40.628Z,98308.50
2024-05-09T22:26:43.256Z,98331.13
2024-05-09T22:29:45.762Z,98312.22
2024-05-09T22:32:48.502Z,98332.97
2024-05-09T22:35:51.857Z,98332.81
2024-05-09T22:38:54.451Z,98342.19
2024-05-09T22:41:56.995Z,98335.91
2024-05-09T22:44:59.513Z,98338.16
2024-05-09T22:48:02.270Z,98338.34
2024-05-09T22:51:05.281Z,98341.03
2024-05-09T22:54:08.382Z,98334.53
2024-05-09T22:57:10.869Z,98338.41
2024-05-09T23:00:16.006Z,98343.72
2024-05-09T23:03:21.904Z,98336.59
2024-05-09T23:06:25.209Z,98328.66
2024-05-09T23:09:27.742Z,98339.50
2024-05-09T23:12:30.290Z,98337.25
2024-05-09T23:15:32.870Z,98335.81
2024-05-09T23:18:35.427Z,98342.38
2024-05-09T23:21:41.341Z,98331.16
2024-05-09T23:24:43.886Z,98336.47
2024-05-09T23:27:46.545Z,98337.09
2024-05-09T23:30:49.207Z,98327.09
2024-05-09T23:33:51.951Z,98327.06
2024-05-09T23:36:54.678Z,98331.16
2024-05-09T23:39:57.270Z,98331.56
2024-05-09T23:43:00.022Z,98320.75
2024-05-09T23:46:03.131Z,98324.22
2024-05-09T23:49:06.193Z,98315.47
2024-05-09T23:52:08.804Z,98324.84
2024-05-09T23:55:11.500Z,98316.88
2024-05-09T23:58:14.176Z,98326.50
